createdAt,value
2022-12-03T00:00:59.115Z,-3.65
2022-12-03T00:03:30.972Z,-3.59
2022-12-03T00:06:01.972Z,-3.58
2022-12-03T00:08:32.178Z,-3.60
2022-12-03T00:11:02.495Z,-3.58
2022-12-03T00:13:32.750Z,-3.57
2022-12-03T00:16:03.555Z,-3.59
2022-12-03T00:18:35.138Z,-3.59
2022-12-03T00:21:05.660Z,-3.62
2022-12-03T00:23:41.483Z,-3.64
2022-12-03T00:26:12.891Z,-3.72
2022-12-03T00:28:42.940Z,-3.70
2022-12-03T00:31:13.489Z,-3.74
2022-12-03T00:33:45.189Z,-3.66
2022-12-03T00:36:15.551Z,-3.70
2022-12-03T00:38:45.889Z,-3.76
2022-12-03T00:41:16.669Z,-3.71
2022-12-03T00:43:46.722Z,-3.77
2022-12-03T00:46:21.059Z,-3.77
2022-12-03T00:48:53.299Z,-3.73
2022-12-03T00:51:23.979Z,-3.77
2022-12-03T00:53:54.101Z,-3.77
2022-12-03T00:56:25.259Z,-3.78
2022-12-03T00:58:55.391Z,-3.75
2022-12-03T01:01:25.771Z,-3.81
2022-12-03T01:03:57.531Z,-3.83
2022-12-03T01:06:27.931Z,-3.81
2022-12-03T01:08:58.462Z,-3.74
2022-12-03T01:11:41.710Z,-3.73
2022-12-03T01:14:13.562Z,-3.81
2022-12-03T01:16:44.045Z,-3.84
2022-12-03T01:19:17.528Z,-3.87
2022-12-03T01:21:51.009Z,-3.83
2022-12-03T01:24:21.829Z,-3.83
2022-12-03T01:26:52.277Z,-3.84
2022-12-03T01:29:22.692Z,-3.85
2022-12-03T01:32:10.379Z,-3.87
2022-12-03T01:34:41.770Z,-3.95
2022-12-03T01:37:12.382Z,-3.97
2022-12-03T01:39:42.630Z,-3.95
2022-12-03T01:42:18.002Z,-3.95
2022-12-03T01:44:49.299Z,-3.95
2022-12-03T01:47:21.761Z,-4.03
2022-12-03T01:49:56.768Z,-4.04
2022-12-03T01:52:32.044Z,-4.05
2022-12-03T01:55:05.400Z,-4.09
2022-12-03T01:57:42.950Z,-4.12
2022-12-03T02:00:17.489Z,-4.09
2022-12-03T02:02:50.191Z,-4.13
2022-12-03T02:05:24.290Z,-4.16
2022-12-03T02:07:56.868Z,-4.21
2022-12-03T02:10:30.100Z,-4.16
2022-12-03T02:13:04.441Z,-4.12
2022-12-03T02:15:34.980Z,-4.16
2022-12-03T02:18:05.641Z,-4.22
2022-12-03T02:20:45.020Z,-4.30
2022-12-03T02:23:25.881Z,-4.30
2022-12-03T02:25:57.385Z,-4.27
2022-12-03T02:28:28.049Z,-4.29
2022-12-03T02:30:58.079Z,-4.32
2022-12-03T02:33:28.782Z,-4.29
2022-12-03T02:36:03.327Z,-4.23
2022-12-03T02:38:36.580Z,-4.24
2022-12-03T02:41:33.172Z,-4.32
2022-12-03T02:44:03.211Z,-4.24
2022-12-03T02:46:33.829Z,-4.26
2022-12-03T02:49:07.341Z,-4.30
2022-12-03T02:51:37.699Z,-4.32
2022-12-03T02:54:08.050Z,-4.37
2022-12-03T02:56:39.571Z,-4.36
2022-12-03T02:59:09.879Z,-4.38
2022-12-03T03:01:40.127Z,-4.38
2022-12-03T03:04:10.551Z,-4.42
2022-12-03T03:06:40.651Z,-4.43
2022-12-03T03:09:11.289Z,-4.44
2022-12-03T03:11:42.791Z,-4.41
2022-12-03T03:14:13.789Z,-4.45
2022-12-03T03:16:44.152Z,-4.45
2022-12-03T03:19:14.570Z,-4.40
2022-12-03T03:21:44.663Z,-4.40
2022-12-03T03:24:14.939Z,-4.40
2022-12-03T03:26:46.809Z,-4.41
2022-12-03T03:29:17.448Z,-4.40
2022-12-03T03:31:48.881Z,-4.43
2022-12-03T03:34:19.013Z,-4.44
2022-12-03T03:36:49.148Z,-4.46
2022-12-03T03:39:19.510Z,-4.39
2022-12-03T03:41:51.126Z,-4.41
2022-12-03T03:44:21.500Z,-4.42
2022-12-03T03:46:51.689Z,-4.47
2022-12-03T03:49:22.186Z,-4.54
2022-12-03T03:51:52.561Z,-4.49
2022-12-03T03:54:23.471Z,-4.50
2022-12-03T03:56:57.690Z,-4.51
2022-12-03T03:59:28.460Z,-4.55
2022-12-03T04:01:58.577Z,-4.52
2022-12-03T04:04:33.545Z,-4.55
2022-12-03T04:07:03.800Z,-4.59
2022-12-03T04:09:34.085Z,-4.60
2022-12-03T04:12:23.247Z,-4.63
2022-12-03T04:14:53.826Z,-4.63
2022-12-03T04:17:24.109Z,-4.60
2022-12-03T04:19:54.543Z,-4.60
2022-12-03T04:22:41.830Z,-4.57
2022-12-03T04:25:30.261Z,-4.63
2022-12-03T04:28:18.770Z,-4.61
2022-12-03T04:30:49.130Z,-4.64
2022-12-03T04:33:36.361Z,-4.61
2022-12-03T04:36:07.097Z,-4.60
2022-12-03T04:38:36.984Z,-4.60
2022-12-03T04:41:07.340Z,-4.65
2022-12-03T04:43:58.878Z,-4.60
2022-12-03T04:46:29.364Z,-4.63
2022-12-03T04:48:59.437Z,-4.64
2022-12-03T04:51:29.969Z,-4.64
2022-12-03T04:53:59.937Z,-4.61
2022-12-03T04:56:30.705Z,-4.61
2022-12-03T04:59:02.147Z,-4.65
2022-12-03T05:01:32.645Z,-4.70
2022-12-03T05:04:03.407Z,-4.68
2022-12-03T05:06:33.796Z,-4.62
2022-12-03T05:09:04.052Z,-4.66
2022-12-03T05:11:34.537Z,-4.61
2022-12-03T05:14:06.507Z,-4.58
2022-12-03T05:16:37.133Z,-5.04
2022-12-03T05:19:09.090Z,-4.63
2022-12-03T05:21:39.450Z,-4.64
2022-12-03T05:24:09.676Z,-4.71
2022-12-03T05:26:40.266Z,-4.74
2022-12-03T05:29:11.849Z,-4.74
2022-12-03T05:31:42.279Z,-4.67
2022-12-03T05:34:12.375Z,-4.70
2022-12-03T05:36:42.787Z,-4.68
2022-12-03T05:39:12.945Z,-4.55
2022-12-03T05:42:00.569Z,-4.60
2022-12-03T05:44:32.435Z,-4.56
2022-12-03T05:47:03.087Z,-4.56
2022-12-03T05:49:33.176Z,-4.50
2022-12-03T05:52:03.520Z,-4.52
2022-12-03T05:54:33.659Z,-4.55
2022-12-03T05:57:04.066Z,-4.57
2022-12-03T05:59:36.540Z,-4.53
2022-12-03T06:02:07.216Z,-4.50
2022-12-03T06:04:37.262Z,-4.52
2022-12-03T06:07:12.482Z,-4.51
2022-12-03T06:09:43.998Z,-4.50
2022-12-03T06:12:14.408Z,-4.48
2022-12-03T06:14:45.929Z,-4.49
2022-12-03T06:17:16.366Z,-4.50
2022-12-03T06:19:46.349Z,-4.58
2022-12-03T06:22:16.849Z,-4.57
2022-12-03T06:24:46.989Z,-4.53
2022-12-03T06:27:17.579Z,-4.53
2022-12-03T06:29:49.119Z,-4.49
2022-12-03T06:32:19.568Z,-4.51
2022-12-03T06:34:49.719Z,-4.55
2022-12-03T06:37:20.231Z,-4.54
2022-12-03T06:39:50.300Z,-4.52
2022-12-03T06:42:21.050Z,-4.50
2022-12-03T06:44:52.996Z,-4.54
2022-12-03T06:47:23.638Z,-4.52
2022-12-03T06:49:53.820Z,-4.45
2022-12-03T06:52:25.251Z,-4.45
2022-12-03T06:54:55.385Z,-4.45
2022-12-03T06:57:26.029Z,-4.43
2022-12-03T06:59:57.611Z,-4.39
2022-12-03T07:02:28.066Z,-4.36
2022-12-03T07:04:58.748Z,-4.42
2022-12-03T07:07:29.419Z,-4.41
2022-12-03T07:09:59.660Z,-4.36
2022-12-03T07:12:30.250Z,-4.38
2022-12-03T07:15:01.879Z,-4.46
2022-12-03T07:17:33.011Z,-4.42
2022-12-03T07:20:04.978Z,-4.43
2022-12-03T07:22:36.122Z,-4.43
2022-12-03T07:25:06.779Z,-4.40
2022-12-03T07:27:40.421Z,-4.34
2022-12-03T07:30:16.131Z,-4.24
2022-12-03T07:32:46.510Z,-4.25
2022-12-03T07:35:16.791Z,-4.26
2022-12-03T07:37:47.411Z,-4.27
2022-12-03T07:40:17.749Z,-4.30
2022-12-03T07:42:48.507Z,-4.33
2022-12-03T07:45:20.328Z,-4.30
2022-12-03T07:47:50.780Z,-4.28
2022-12-03T07:50:20.882Z,-4.25
2022-12-03T07:52:51.332Z,-4.30
2022-12-03T07:55:21.687Z,-4.28
2022-12-03T07:57:52.833Z,-4.19
2022-12-03T08:00:25.671Z,-4.16
2022-12-03T08:02:56.270Z,-4.25
2022-12-03T08:05:27.048Z,-4.20
2022-12-03T08:07:58.293Z,-4.14
2022-12-03T08:10:28.450Z,-4.15
2022-12-03T08:13:01.589Z,-4.16
2022-12-03T08:15:39.282Z,-4.12
2022-12-03T08:18:16.539Z,-4.12
2022-12-03T08:20:49.853Z,-4.09
2022-12-03T08:23:25.630Z,-4.15
2022-12-03T08:25:56.319Z,-4.17
2022-12-03T08:28:28.197Z,-4.14
2022-12-03T08:31:08.005Z,-4.10
2022-12-03T08:33:40.554Z,-4.09
2022-12-03T08:36:16.847Z,-4.05
2022-12-03T08:38:53.109Z,-4.05
2022-12-03T08:41:39.012Z,-4.06
2022-12-03T08:44:23.841Z,-4.00
2022-12-03T08:47:04.138Z,-3.98
2022-12-03T08:49:34.654Z,-4.02
2022-12-03T08:52:14.289Z,-3.97
2022-12-03T08:54:45.550Z,-4.03
2022-12-03T08:57:29.035Z,-4.02
2022-12-03T09:00:16.411Z,-4.01
2022-12-03T09:02:53.229Z,-4.03
2022-12-03T09:05:30.198Z,-3.93
2022-12-03T09:08:00.964Z,-3.97
2022-12-03T09:10:32.215Z,-3.99
2022-12-03T09:13:04.091Z,-3.90
2022-12-03T09:15:36.079Z,-3.87
2022-12-03T09:18:08.714Z,-3.87
2022-12-03T09:20:42.453Z,-3.80
2022-12-03T09:23:13.379Z,-3.75
2022-12-03T09:25:43.917Z,-3.77
2022-12-03T09:28:14.143Z,-3.81
2022-12-03T09:30:44.690Z,-3.78
2022-12-03T09:33:16.390Z,-3.75
2022-12-03T09:35:51.026Z,-3.79
2022-12-03T09:38:22.187Z,-3.71
2022-12-03T09:40:52.817Z,-3.74
2022-12-03T09:43:24.586Z,-3.77
2022-12-03T09:46:01.692Z,-3.73
2022-12-03T09:48:33.977Z,-3.79
2022-12-03T09:51:05.902Z,-3.80
2022-12-03T09:53:40.979Z,-3.77
2022-12-03T09:56:25.889Z,-3.78
2022-12-03T09:58:56.020Z,-3.81
2022-12-03T10:01:30.360Z,-3.79
2022-12-03T10:04:03.516Z,-3.72
2022-12-03T10:06:34.452Z,-3.68
2022-12-03T10:09:06.456Z,-3.66
2022-12-03T10:11:38.328Z,-3.66
2022-12-03T10:14:11.369Z,-3.64
2022-12-03T10:16:43.774Z,-3.59
2022-12-03T10:19:25.057Z,-3.57
2022-12-03T10:21:55.983Z,-3.53
2022-12-03T10:24:29.905Z,-3.53
2022-12-03T10:27:04.435Z,-3.55
2022-12-03T10:29:37.316Z,-3.56
2022-12-03T10:32:10.203Z,-3.56
2022-12-03T10:34:43.351Z,-3.58
2022-12-03T10:37:16.959Z,-3.52
2022-12-03T10:39:59.161Z,-3.50
2022-12-03T10:42:31.170Z,-3.50
2022-12-03T10:45:16.599Z,-3.47
2022-12-03T10:48:07.396Z,-3.41
2022-12-03T10:50:39.550Z,-3.39
2022-12-03T10:53:12.729Z,-3.78
2022-12-03T10:55:46.091Z,-3.44
2022-12-03T10:58:24.992Z,-3.33
2022-12-03T11:00:57.499Z,-3.38
2022-12-03T11:03:29.711Z,-3.31
2022-12-03T11:06:04.390Z,-3.27
2022-12-03T11:08:39.477Z,-3.31
2022-12-03T11:11:18.301Z,-3.27
2022-12-03T11:13:52.174Z,-3.21
2022-12-03T11:17:06.289Z,-3.28
2022-12-03T11:19:52.440Z,-3.28
2022-12-03T11:22:46.675Z,-3.27
2022-12-03T11:25:49.829Z,-3.28
2022-12-03T11:28:54.342Z,-3.27
2022-12-03T11:31:40.161Z,-3.19
2022-12-03T11:34:50.847Z,-3.20
2022-12-03T11:37:27.914Z,-3.14
2022-12-03T11:40:27.228Z,-3.12
2022-12-03T11:42:58.287Z,-3.44
2022-12-03T11:45:35.678Z,-3.09
2022-12-03T11:48:14.125Z,-3.11
2022-12-03T11:50:53.539Z,-3.07
2022-12-03T11:53:27.474Z,-3.08
2022-12-03T11:56:09.536Z,-3.12
2022-12-03T11:58:43.979Z,-3.13
2022-12-03T12:01:16.406Z,-3.17
2022-12-03T12:03:49.476Z,-3.21
2022-12-03T12:06:21.496Z,-3.14
2022-12-03T12:09:00.199Z,-3.15
2022-12-03T12:11:33.298Z,-3.09
2022-12-03T12:14:05.308Z,-3.03
2022-12-03T12:16:46.328Z,-3.07
2022-12-03T12:19:37.807Z,-3.08
2022-12-03T12:22:33.258Z,-3.07
2022-12-03T12:25:05.550Z,-3.05
2022-12-03T12:27:41.320Z,-3.05
2022-12-03T12:30:18.164Z,-3.01
2022-12-03T12:32:50.380Z,-3.02
2022-12-03T12:35:23.006Z,-3.02
2022-12-03T12:37:59.692Z,-3.03
2022-12-03T12:40:33.933Z,-3.02
2022-12-03T12:43:15.330Z,-2.98
2022-12-03T12:45:47.435Z,-2.98
2022-12-03T12:48:28.057Z,-3.05
2022-12-03T12:51:03.664Z,-3.06
2022-12-03T12:53:35.448Z,-3.03
2022-12-03T12:56:15.071Z,-3.07
2022-12-03T12:58:47.117Z,-3.04
2022-12-03T13:01:24.182Z,-3.10
2022-12-03T13:03:56.950Z,-3.14
2022-12-03T13:06:29.897Z,-3.14
2022-12-03T13:09:01.425Z,-3.10
2022-12-03T13:11:41.548Z,-3.12
2022-12-03T13:14:18.457Z,-3.12
2022-12-03T13:16:50.357Z,-3.10
2022-12-03T13:19:25.864Z,-3.14
2022-12-03T13:21:57.696Z,-3.15
2022-12-03T13:24:33.684Z,-3.10
2022-12-03T13:27:11.099Z,-3.02
2022-12-03T13:29:43.158Z,-3.07
2022-12-03T13:32:16.205Z,-3.13
2022-12-03T13:34:47.687Z,-3.11
2022-12-03T13:37:22.559Z,-3.15
2022-12-03T13:39:54.352Z,-3.16
2022-12-03T13:42:42.518Z,-3.18
2022-12-03T13:45:33.398Z,-3.22
2022-12-03T13:48:15.549Z,-3.24
2022-12-03T13:50:46.469Z,-3.27
2022-12-03T13:53:24.105Z,-3.23
2022-12-03T13:55:58.559Z,-3.23
2022-12-03T13:58:29.237Z,-3.20
2022-12-03T14:01:01.838Z,-3.22
2022-12-03T14:03:32.379Z,-3.16
2022-12-03T14:06:02.369Z,-3.15
2022-12-03T14:08:37.662Z,-3.19
2022-12-03T14:11:08.289Z,-3.22
2022-12-03T14:13:39.040Z,-3.19
2022-12-03T14:16:11.424Z,-3.19
2022-12-03T14:18:42.510Z,-3.18
2022-12-03T14:21:13.178Z,-3.19
2022-12-03T14:23:43.817Z,-3.21
2022-12-03T14:26:14.223Z,-3.21
2022-12-03T14:28:45.015Z,-3.21
2022-12-03T14:31:19.311Z,-3.26
2022-12-03T14:33:49.732Z,-3.25
2022-12-03T14:36:20.394Z,-3.22
2022-12-03T14:38:51.312Z,-3.17
2022-12-03T14:41:39.485Z,-3.22
2022-12-03T14:44:10.676Z,-3.29
2022-12-03T14:46:43.290Z,-3.31
2022-12-03T14:49:15.137Z,-3.30
2022-12-03T14:51:47.847Z,-3.27
2022-12-03T14:54:19.047Z,-3.30
2022-12-03T14:56:49.886Z,-3.30
2022-12-03T14:59:26.042Z,-3.28
2022-12-03T15:02:00.857Z,-3.33
2022-12-03T15:04:31.868Z,-3.38
2022-12-03T15:07:01.953Z,-3.40
2022-12-03T15:09:32.656Z,-3.45
2022-12-03T15:12:02.936Z,-3.53
2022-12-03T15:14:33.541Z,-3.53
2022-12-03T15:17:05.125Z,-3.55
2022-12-03T15:19:35.716Z,-3.57
2022-12-03T15:22:05.955Z,-3.58
2022-12-03T15:24:36.986Z,-3.57
2022-12-03T15:27:07.295Z,-3.58
2022-12-03T15:29:37.885Z,-3.56
2022-12-03T15:32:09.535Z,-3.61
2022-12-03T15:34:40.305Z,-3.60
2022-12-03T15:37:11.386Z,-3.55
2022-12-03T15:39:48.132Z,-3.53
2022-12-03T15:42:18.935Z,-3.56
2022-12-03T15:44:49.296Z,-3.59
2022-12-03T15:47:20.854Z,-3.62
2022-12-03T15:49:51.493Z,-3.61
2022-12-03T15:52:22.305Z,-3.60
2022-12-03T15:54:52.917Z,-3.63
2022-12-03T15:57:23.084Z,-3.55
2022-12-03T15:59:54.846Z,-3.60
2022-12-03T16:02:26.554Z,-3.62
2022-12-03T16:04:57.108Z,-3.60
2022-12-03T16:07:27.469Z,-3.61
2022-12-03T16:09:58.164Z,-3.60
2022-12-03T16:12:28.327Z,-3.58
2022-12-03T16:14:59.322Z,-3.57
2022-12-03T16:17:31.937Z,-3.58
2022-12-03T16:20:03.005Z,-3.57
2022-12-03T16:22:33.430Z,-3.57
2022-12-03T16:25:05.409Z,-3.58
2022-12-03T16:27:37.287Z,-3.60
2022-12-03T16:30:09.729Z,-3.59
2022-12-03T16:32:41.968Z,-3.59
2022-12-03T16:35:12.321Z,-3.58
2022-12-03T16:37:42.746Z,-3.57
2022-12-03T16:40:13.956Z,-3.57
2022-12-03T16:42:43.936Z,-3.55
2022-12-03T16:45:31.876Z,-3.57
2022-12-03T16:48:04.116Z,-3.54
2022-12-03T16:50:37.894Z,-3.53
2022-12-03T16:53:08.057Z,-3.52
2022-12-03T16:55:38.573Z,-3.56
2022-12-03T16:58:08.897Z,-3.53
2022-12-03T17:00:39.375Z,-3.53
2022-12-03T17:03:11.427Z,-3.48
2022-12-03T17:05:41.985Z,-3.54
2022-12-03T17:08:11.904Z,-3.51
2022-12-03T17:10:43.743Z,-3.53
2022-12-03T17:13:13.664Z,-3.53
2022-12-03T17:15:45.257Z,-3.52
2022-12-03T17:18:17.536Z,-3.53
2022-12-03T17:20:48.309Z,-3.55
2022-12-03T17:23:19.225Z,-3.56
2022-12-03T17:25:49.936Z,-3.56
2022-12-03T17:28:21.488Z,-3.56
2022-12-03T17:30:51.990Z,-3.55
2022-12-03T17:33:24.465Z,-3.52
2022-12-03T17:35:55.066Z,-3.55
2022-12-03T17:38:26.286Z,-3.54
2022-12-03T17:41:00.620Z,-3.55
2022-12-03T17:43:33.588Z,-3.54
2022-12-03T17:46:05.411Z,-3.56
2022-12-03T17:48:40.887Z,-3.53
2022-12-03T17:51:11.504Z,-3.51
2022-12-03T17:53:41.725Z,-3.49
2022-12-03T17:56:12.128Z,-3.49
2022-12-03T17:58:42.646Z,-3.51
2022-12-03T18:01:13.046Z,-3.49
2022-12-03T18:03:44.626Z,-3.42
2022-12-03T18:06:15.256Z,-3.44
2022-12-03T18:08:45.436Z,-3.48
2022-12-03T18:11:15.925Z,-3.48
2022-12-03T18:13:46.047Z,-3.47
2022-12-03T18:16:16.952Z,-3.43
2022-12-03T18:18:53.654Z,-3.44
2022-12-03T18:21:28.569Z,-3.42
2022-12-03T18:24:00.335Z,-3.43
2022-12-03T18:26:31.175Z,-3.43
2022-12-03T18:29:01.405Z,-3.47
2022-12-03T18:31:32.060Z,-3.42
2022-12-03T18:34:03.971Z,-3.40
2022-12-03T18:36:38.305Z,-3.44
2022-12-03T18:39:10.046Z,-3.45
2022-12-03T18:41:40.942Z,-3.43
2022-12-03T18:44:13.845Z,-3.45
2022-12-03T18:46:54.688Z,-3.40
2022-12-03T18:49:28.900Z,-3.40
2022-12-03T18:52:05.190Z,-3.41
2022-12-03T18:54:42.129Z,-3.43
2022-12-03T18:57:18.207Z,-3.41
2022-12-03T18:59:58.752Z,-3.43
2022-12-03T19:03:02.390Z,-3.39
2022-12-03T19:05:24.787Z,-3.42
2022-12-03T19:08:01.980Z,-3.41
2022-12-03T19:10:37.380Z,-3.38
2022-12-03T19:13:10.891Z,-3.37
2022-12-03T19:15:41.610Z,-3.41
2022-12-03T19:18:12.356Z,-3.40
2022-12-03T19:20:47.228Z,-3.38
2022-12-03T19:23:18.223Z,-3.34
2022-12-03T19:25:57.970Z,-3.36
2022-12-03T19:28:29.515Z,-3.37
2022-12-03T19:31:01.141Z,-3.33
2022-12-03T19:33:32.355Z,-3.31
2022-12-03T19:36:05.556Z,-3.32
2022-12-03T19:38:36.514Z,-3.33
2022-12-03T19:41:08.315Z,-3.30
2022-12-03T19:43:41.505Z,-3.30
2022-12-03T19:46:13.722Z,-3.28
2022-12-03T19:48:44.636Z,-3.30
2022-12-03T19:51:34.309Z,-3.24
2022-12-03T19:54:07.707Z,-3.26
2022-12-03T19:56:37.813Z,-3.25
2022-12-03T19:59:08.529Z,-3.25
2022-12-03T20:01:41.039Z,-3.28
2022-12-03T20:04:12.625Z,-3.29
2022-12-03T20:06:45.653Z,-3.28
2022-12-03T20:09:18.173Z,-3.48
2022-12-03T20:11:51.684Z,-3.28
2022-12-03T20:14:22.445Z,-3.30
2022-12-03T20:16:52.497Z,-3.29
2022-12-03T20:19:23.184Z,-3.28
2022-12-03T20:22:00.752Z,-3.24
2022-12-03T20:24:33.136Z,-3.28
2022-12-03T20:27:03.395Z,-3.21
2022-12-03T20:29:33.765Z,-3.23
2022-12-03T20:32:04.417Z,-3.21
2022-12-03T20:34:36.393Z,-3.17
2022-12-03T20:37:07.625Z,-3.13
2022-12-03T20:39:38.316Z,-3.10
2022-12-03T20:42:10.475Z,-3.13
2022-12-03T20:44:41.230Z,-3.17
2022-12-03T20:47:11.485Z,-3.21
2022-12-03T20:49:41.963Z,-3.19
2022-12-03T20:52:13.598Z,-3.18
2022-12-03T20:54:44.116Z,-3.17
2022-12-03T20:57:14.785Z,-3.16
2022-12-03T20:59:47.094Z,-3.16
2022-12-03T21:02:18.103Z,-3.11
2022-12-03T21:04:50.746Z,-3.12
2022-12-03T21:07:23.265Z,-3.15
2022-12-03T21:09:54.259Z,-3.13
2022-12-03T21:12:24.696Z,-3.14
2022-12-03T21:14:55.285Z,-3.15
2022-12-03T21:17:25.630Z,-3.12
2022-12-03T21:19:57.200Z,-3.10
2022-12-03T21:22:29.302Z,-3.05
2022-12-03T21:25:00.511Z,-3.11
2022-12-03T21:27:32.997Z,-3.09
2022-12-03T21:30:12.997Z,-3.03
2022-12-03T21:32:45.965Z,-3.02
2022-12-03T21:35:16.577Z,-3.07
2022-12-03T21:37:50.548Z,-3.09
2022-12-03T21:40:25.405Z,-3.09
2022-12-03T21:43:01.363Z,-3.08
2022-12-03T21:45:45.058Z,-3.05
2022-12-03T21:48:20.032Z,-3.04
2022-12-03T21:51:06.002Z,-3.01
2022-12-03T21:53:43.689Z,-3.05
2022-12-03T21:56:17.867Z,-3.05
2022-12-03T21:58:49.077Z,-3.10
2022-12-03T22:01:22.613Z,-3.07
2022-12-03T22:03:53.574Z,-3.04
2022-12-03T22:06:26.454Z,-3.06
2022-12-03T22:08:59.998Z,-3.08
2022-12-03T22:11:32.338Z,-3.05
2022-12-03T22:14:07.168Z,-3.05
2022-12-03T22:16:39.813Z,-3.07
2022-12-03T22:19:11.070Z,-3.09
2022-12-03T22:21:42.262Z,-3.10
2022-12-03T22:24:14.112Z,-3.06
2022-12-03T22:26:45.130Z,-3.05
2022-12-03T22:29:15.296Z,-3.06
2022-12-03T22:31:47.083Z,-3.07
2022-12-03T22:34:17.136Z,-3.06
2022-12-03T22:36:48.630Z,-3.03
2022-12-03T22:39:20.704Z,-3.02
2022-12-03T22:41:51.558Z,-3.00
2022-12-03T22:44:21.908Z,-2.98
2022-12-03T22:46:52.511Z,-3.00
2022-12-03T22:49:22.905Z,-2.97
2022-12-03T22:51:53.517Z,-2.96
2022-12-03T22:54:25.117Z,-2.96
2022-12-03T22:56:55.584Z,-2.96
2022-12-03T22:59:26.084Z,-2.95
2022-12-03T23:01:56.855Z,-2.95
2022-12-03T23:04:27.126Z,-2.98
2022-12-03T23:06:58.253Z,-2.95
2022-12-03T23:09:30.135Z,-2.94
2022-12-03T23:12:00.643Z,-2.97
2022-12-03T23:14:31.776Z,-2.96
2022-12-03T23:17:02.667Z,-2.94
2022-12-03T23:19:33.007Z,-2.94
2022-12-03T23:22:03.607Z,-2.95
2022-12-03T23:24:36.026Z,-2.90
2022-12-03T23:27:06.803Z,-2.90
2022-12-03T23:29:37.307Z,-2.90
2022-12-03T23:32:08.013Z,-2.92
2022-12-03T23:34:38.820Z,-2.88
2022-12-03T23:37:10.218Z,-2.86
2022-12-03T23:39:41.839Z,-2.87
2022-12-03T23:42:12.245Z,-2.85
2022-12-03T23:44:42.168Z,-2.85
2022-12-03T23:47:12.536Z,-2.83
2022-12-03T23:49:42.636Z,-2.85
2022-12-03T23:52:13.078Z,-2.83
2022-12-03T23:54:44.679Z,-2.82
2022-12-03T23:57:16.238Z,-2.82
2022-12-03T23:59:46.365Z,-2.80
